TR-0014 weather

Aksaray Airport
Aksaray, Aksaray Province, Turkey

Public forecast

Using degrees Celsius for public forecast. Weather courtesy of forecast.io.

METAR (pilot weather report)

Closest report is Nev┼čehir Kapadokya Airport, 43.8 nm (81.1 km) NE. Retrieved 2019/06/17 07:20 UTC (38 minutes ago):

LTAZ 170720Z VRB02KT 9999 FEW040 SCT180 22/15 Q1013

TAF (pilot weather forecast)

Closest forecast is Nev┼čehir Kapadokya Airport, 43.8 nm (81.1 km) NE. Retrieved 2019/06/17 06:03 UTC (2 hours ago):

TAF LTAZ 170440Z 1706/1806 VRB02KT 9999 SCT040 PROB40 TEMPO 1711/1715 34015G30KT -TSRA FEW027CB BKN030 TEMPO 1715/1719 34015G30KT -TSRA FEW027CB BKN030 PROB40 TEMPO 1719/1723 -SHRA BKN030 BKN080 TEMPO 1802/1806 -SHRA BKN030 BKN080